sensor_id;sensor_type;location;lat;lon;timestamp;P1;durP1;ratioP1;P2;durP2;ratioP2
69008;SDS011;56065;52.472;13.380;2023-02-13T00:02:13;28.07;;;10.20;;
69008;SDS011;56065;52.472;13.380;2023-02-13T00:04:39;28.08;;;9.27;;
69008;SDS011;56065;52.472;13.380;2023-02-13T00:07:06;27.42;;;9.15;;
69008;SDS011;56065;52.472;13.380;2023-02-13T00:09:32;26.33;;;9.27;;
69008;SDS011;56065;52.472;13.380;2023-02-13T00:11:57;26.07;;;9.07;;
69008;SDS011;56065;52.472;13.380;2023-02-13T00:14:23;24.30;;;8.77;;
69008;SDS011;56065;52.472;13.380;2023-02-13T00:16:48;16.98;;;6.30;;
69008;SDS011;56065;52.472;13.380;2023-02-13T00:19:13;18.40;;;6.47;;
69008;SDS011;56065;52.472;13.380;2023-02-13T00:21:39;18.90;;;6.80;;
69008;SDS011;56065;52.472;13.380;2023-02-13T00:24:04;17.03;;;5.90;;
69008;SDS011;56065;52.472;13.380;2023-02-13T00:26:30;17.33;;;5.60;;
69008;SDS011;56065;52.472;13.380;2023-02-13T00:28:55;18.50;;;5.82;;
69008;SDS011;56065;52.472;13.380;2023-02-13T00:31:21;16.70;;;5.40;;
69008;SDS011;56065;52.472;13.380;2023-02-13T00:33:46;15.23;;;5.40;;
69008;SDS011;56065;52.472;13.380;2023-02-13T00:36:16;16.25;;;5.65;;
69008;SDS011;56065;52.472;13.380;2023-02-13T00:38:43;16.60;;;5.30;;
69008;SDS011;56065;52.472;13.380;2023-02-13T00:41:09;15.48;;;5.50;;
69008;SDS011;56065;52.472;13.380;2023-02-13T00:43:35;20.65;;;6.38;;
69008;SDS011;56065;52.472;13.380;2023-02-13T00:46:02;15.83;;;5.63;;
69008;SDS011;56065;52.472;13.380;2023-02-13T00:48:28;16.42;;;4.90;;
69008;SDS011;56065;52.472;13.380;2023-02-13T00:50:55;12.27;;;4.38;;
69008;SDS011;56065;52.472;13.380;2023-02-13T00:53:21;12.17;;;4.13;;
69008;SDS011;56065;52.472;13.380;2023-02-13T00:55:47;13.00;;;3.88;;
69008;SDS011;56065;52.472;13.380;2023-02-13T00:58:14;12.88;;;4.07;;
69008;SDS011;56065;52.472;13.380;2023-02-13T01:00:40;9.88;;;2.60;;
69008;SDS011;56065;52.472;13.380;2023-02-13T01:03:05;8.90;;;2.37;;
69008;SDS011;56065;52.472;13.380;2023-02-13T01:05:31;7.30;;;1.90;;
69008;SDS011;56065;52.472;13.380;2023-02-13T01:07:56;7.35;;;1.67;;
69008;SDS011;56065;52.472;13.380;2023-02-13T01:10:22;7.43;;;1.93;;
69008;SDS011;56065;52.472;13.380;2023-02-13T01:12:47;7.87;;;1.70;;
69008;SDS011;56065;52.472;13.380;2023-02-13T01:15:13;7.90;;;1.70;;
69008;SDS011;56065;52.472;13.380;2023-02-13T01:17:38;7.30;;;1.80;;
69008;SDS011;56065;52.472;13.380;2023-02-13T01:20:07;6.90;;;1.67;;
69008;SDS011;56065;52.472;13.380;2023-02-13T01:22:35;6.90;;;1.90;;
69008;SDS011;56065;52.472;13.380;2023-02-13T01:25:00;6.80;;;1.40;;
69008;SDS011;56065;52.472;13.380;2023-02-13T01:27:26;6.43;;;1.40;;
69008;SDS011;56065;52.472;13.380;2023-02-13T01:29:52;6.60;;;1.42;;
69008;SDS011;56065;52.472;13.380;2023-02-13T01:32:18;5.77;;;1.23;;
69008;SDS011;56065;52.472;13.380;2023-02-13T01:34:43;5.40;;;1.27;;
69008;SDS011;56065;52.472;13.380;2023-02-13T01:37:08;6.87;;;1.53;;
69008;SDS011;56065;52.472;13.380;2023-02-13T01:39:34;6.00;;;1.50;;
69008;SDS011;56065;52.472;13.380;2023-02-13T01:41:59;6.37;;;1.60;;
69008;SDS011;56065;52.472;13.380;2023-02-13T01:47:13;5.80;;;1.60;;
69008;SDS011;56065;52.472;13.380;2023-02-13T01:49:43;5.25;;;1.60;;
69008;SDS011;56065;52.472;13.380;2023-02-13T01:52:10;5.85;;;1.73;;
69008;SDS011;56065;52.472;13.380;2023-02-13T01:54:37;5.53;;;1.60;;
69008;SDS011;56065;52.472;13.380;2023-02-13T01:57:04;6.70;;;1.73;;
69008;SDS011;56065;52.472;13.380;2023-02-13T01:59:43;8.65;;;1.80;;
69008;SDS011;56065;52.472;13.380;2023-02-13T02:02:11;5.95;;;1.80;;
69008;SDS011;56065;52.472;13.380;2023-02-13T02:04:37;7.80;;;2.13;;
69008;SDS011;56065;52.472;13.380;2023-02-13T02:07:06;8.50;;;2.40;;
69008;SDS011;56065;52.472;13.380;2023-02-13T02:09:36;57.15;;;23.88;;
69008;SDS011;56065;52.472;13.380;2023-02-13T02:14:54;6.07;;;1.77;;
69008;SDS011;56065;52.472;13.380;2023-02-13T02:17:23;6.50;;;1.75;;
69008;SDS011;56065;52.472;13.380;2023-02-13T02:20:13;7.80;;;2.10;;
69008;SDS011;56065;52.472;13.380;2023-02-13T02:41:53;7.82;;;2.10;;
69008;SDS011;56065;52.472;13.380;2023-02-13T02:44:24;7.60;;;2.17;;
69008;SDS011;56065;52.472;13.380;2023-02-13T02:58:04;7.97;;;2.20;;
69008;SDS011;56065;52.472;13.380;2023-02-13T03:00:56;8.10;;;2.50;;
69008;SDS011;56065;52.472;13.380;2023-02-13T03:03:42;9.75;;;2.83;;
69008;SDS011;56065;52.472;13.380;2023-02-13T03:06:38;8.43;;;2.30;;
69008;SDS011;56065;52.472;13.380;2023-02-13T03:09:09;8.77;;;2.22;;
69008;SDS011;56065;52.472;13.380;2023-02-13T03:11:58;7.97;;;2.47;;
69008;SDS011;56065;52.472;13.380;2023-02-13T03:14:42;10.87;;;2.90;;
69008;SDS011;56065;52.472;13.380;2023-02-13T03:17:12;8.25;;;2.58;;
69008;SDS011;56065;52.472;13.380;2023-02-13T03:28:30;10.23;;;3.40;;
69008;SDS011;56065;52.472;13.380;2023-02-13T03:31:31;11.65;;;3.65;;
69008;SDS011;56065;52.472;13.380;2023-02-13T03:34:09;11.32;;;4.43;;
69008;SDS011;56065;52.472;13.380;2023-02-13T03:42:33;12.75;;;4.45;;
69008;SDS011;56065;52.472;13.380;2023-02-13T03:45:03;12.75;;;4.57;;
69008;SDS011;56065;52.472;13.380;2023-02-13T03:47:54;14.48;;;4.70;;
69008;SDS011;56065;52.472;13.380;2023-02-13T03:50:21;14.85;;;5.45;;
69008;SDS011;56065;52.472;13.380;2023-02-13T03:52:55;15.20;;;5.30;;
69008;SDS011;56065;52.472;13.380;2023-02-13T03:55:27;14.20;;;5.10;;
69008;SDS011;56065;52.472;13.380;2023-02-13T03:58:16;13.43;;;5.05;;
69008;SDS011;56065;52.472;13.380;2023-02-13T04:01:06;13.98;;;5.15;;
69008;SDS011;56065;52.472;13.380;2023-02-13T04:03:38;12.93;;;4.88;;
69008;SDS011;56065;52.472;13.380;2023-02-13T04:06:07;12.47;;;4.60;;
69008;SDS011;56065;52.472;13.380;2023-02-13T04:08:38;13.75;;;5.35;;
69008;SDS011;56065;52.472;13.380;2023-02-13T04:13:41;13.02;;;4.70;;
69008;SDS011;56065;52.472;13.380;2023-02-13T04:16:15;14.68;;;5.47;;
69008;SDS011;56065;52.472;13.380;2023-02-13T04:18:45;13.77;;;5.05;;
69008;SDS011;56065;52.472;13.380;2023-02-13T04:21:12;13.32;;;5.43;;
69008;SDS011;56065;52.472;13.380;2023-02-13T04:23:37;14.37;;;5.60;;
69008;SDS011;56065;52.472;13.380;2023-02-13T04:26:05;15.47;;;5.50;;
69008;SDS011;56065;52.472;13.380;2023-02-13T04:28:32;16.60;;;6.65;;
69008;SDS011;56065;52.472;13.380;2023-02-13T04:30:58;15.73;;;5.73;;
69008;SDS011;56065;52.472;13.380;2023-02-13T04:33:23;15.60;;;5.80;;
69008;SDS011;56065;52.472;13.380;2023-02-13T04:35:48;14.63;;;6.03;;
69008;SDS011;56065;52.472;13.380;2023-02-13T04:38:14;16.17;;;5.70;;
69008;SDS011;56065;52.472;13.380;2023-02-13T04:40:39;18.23;;;6.70;;
69008;SDS011;56065;52.472;13.380;2023-02-13T04:43:04;14.88;;;5.32;;
69008;SDS011;56065;52.472;13.380;2023-02-13T04:45:30;16.50;;;6.17;;
69008;SDS011;56065;52.472;13.380;2023-02-13T04:47:55;15.37;;;5.70;;
69008;SDS011;56065;52.472;13.380;2023-02-13T04:50:21;16.20;;;5.85;;
69008;SDS011;56065;52.472;13.380;2023-02-13T04:52:49;18.53;;;5.73;;
69008;SDS011;56065;52.472;13.380;2023-02-13T04:55:16;15.20;;;5.00;;
69008;SDS011;56065;52.472;13.380;2023-02-13T04:57:42;14.67;;;5.80;;
69008;SDS011;56065;52.472;13.380;2023-02-13T05:00:07;15.40;;;5.73;;
69008;SDS011;56065;52.472;13.380;2023-02-13T05:02:33;15.60;;;5.45;;
69008;SDS011;56065;52.472;13.380;2023-02-13T05:04:58;15.20;;;5.13;;
69008;SDS011;56065;52.472;13.380;2023-02-13T05:07:24;10.70;;;4.33;;
69008;SDS011;56065;52.472;13.380;2023-02-13T05:09:49;12.70;;;4.45;;
69008;SDS011;56065;52.472;13.380;2023-02-13T05:12:14;11.63;;;4.20;;
69008;SDS011;56065;52.472;13.380;2023-02-13T05:14:40;11.23;;;4.03;;
69008;SDS011;56065;52.472;13.380;2023-02-13T05:17:05;11.43;;;4.23;;
69008;SDS011;56065;52.472;13.380;2023-02-13T05:19:31;12.27;;;4.53;;
69008;SDS011;56065;52.472;13.380;2023-02-13T05:21:56;12.37;;;4.17;;
69008;SDS011;56065;52.472;13.380;2023-02-13T05:24:40;13.30;;;4.43;;
69008;SDS011;56065;52.472;13.380;2023-02-13T05:27:05;11.50;;;4.10;;
69008;SDS011;56065;52.472;13.380;2023-02-13T05:29:31;11.25;;;3.97;;
69008;SDS011;56065;52.472;13.380;2023-02-13T05:31:56;11.33;;;4.23;;
69008;SDS011;56065;52.472;13.380;2023-02-13T05:34:24;14.45;;;4.90;;
69008;SDS011;56065;52.472;13.380;2023-02-13T05:36:50;10.40;;;4.03;;
69008;SDS011;56065;52.472;13.380;2023-02-13T05:39:16;11.60;;;4.07;;
69008;SDS011;56065;52.472;13.380;2023-02-13T05:41:42;11.73;;;4.20;;
69008;SDS011;56065;52.472;13.380;2023-02-13T05:44:08;12.20;;;4.53;;
69008;SDS011;56065;52.472;13.380;2023-02-13T05:46:33;11.03;;;3.83;;
69008;SDS011;56065;52.472;13.380;2023-02-13T05:49:00;12.10;;;4.03;;
69008;SDS011;56065;52.472;13.380;2023-02-13T05:51:25;9.87;;;3.70;;
69008;SDS011;56065;52.472;13.380;2023-02-13T05:53:51;10.50;;;3.90;;
69008;SDS011;56065;52.472;13.380;2023-02-13T05:56:16;10.23;;;4.20;;
69008;SDS011;56065;52.472;13.380;2023-02-13T05:58:41;11.20;;;3.70;;
69008;SDS011;56065;52.472;13.380;2023-02-13T06:01:07;10.47;;;3.47;;
69008;SDS011;56065;52.472;13.380;2023-02-13T06:03:32;10.53;;;4.30;;
69008;SDS011;56065;52.472;13.380;2023-02-13T06:05:58;10.07;;;3.70;;
69008;SDS011;56065;52.472;13.380;2023-02-13T06:08:24;10.77;;;4.15;;
69008;SDS011;56065;52.472;13.380;2023-02-13T06:10:50;9.90;;;3.70;;
69008;SDS011;56065;52.472;13.380;2023-02-13T06:13:16;10.27;;;3.70;;
69008;SDS011;56065;52.472;13.380;2023-02-13T06:15:42;9.00;;;3.63;;
69008;SDS011;56065;52.472;13.380;2023-02-13T06:18:07;9.85;;;3.83;;
69008;SDS011;56065;52.472;13.380;2023-02-13T06:20:33;13.30;;;5.30;;
69008;SDS011;56065;52.472;13.380;2023-02-13T06:22:58;9.77;;;3.27;;
69008;SDS011;56065;52.472;13.380;2023-02-13T06:25:24;10.43;;;4.27;;
69008;SDS011;56065;52.472;13.380;2023-02-13T06:27:49;11.77;;;4.10;;
69008;SDS011;56065;52.472;13.380;2023-02-13T06:30:15;9.32;;;3.67;;
69008;SDS011;56065;52.472;13.380;2023-02-13T06:32:41;9.80;;;4.00;;
69008;SDS011;56065;52.472;13.380;2023-02-13T06:35:07;8.50;;;3.40;;
69008;SDS011;56065;52.472;13.380;2023-02-13T06:37:33;9.25;;;3.55;;
69008;SDS011;56065;52.472;13.380;2023-02-13T06:39:59;10.07;;;4.10;;
69008;SDS011;56065;52.472;13.380;2023-02-13T06:42:24;10.57;;;3.83;;
69008;SDS011;56065;52.472;13.380;2023-02-13T06:44:50;13.77;;;4.27;;
69008;SDS011;56065;52.472;13.380;2023-02-13T06:47:15;10.20;;;3.67;;
69008;SDS011;56065;52.472;13.380;2023-02-13T06:49:41;10.47;;;4.10;;
69008;SDS011;56065;52.472;13.380;2023-02-13T06:52:06;10.77;;;4.23;;
69008;SDS011;56065;52.472;13.380;2023-02-13T06:54:31;9.00;;;3.70;;
69008;SDS011;56065;52.472;13.380;2023-02-13T06:56:57;20.60;;;7.17;;
69008;SDS011;56065;52.472;13.380;2023-02-13T06:59:22;55.37;;;22.23;;
69008;SDS011;56065;52.472;13.380;2023-02-13T07:01:47;12.05;;;4.95;;
69008;SDS011;56065;52.472;13.380;2023-02-13T07:04:13;11.23;;;4.90;;
69008;SDS011;56065;52.472;13.380;2023-02-13T07:06:38;11.63;;;4.43;;
69008;SDS011;56065;52.472;13.380;2023-02-13T07:09:04;9.87;;;3.83;;
69008;SDS011;56065;52.472;13.380;2023-02-13T07:11:29;12.63;;;4.07;;
69008;SDS011;56065;52.472;13.380;2023-02-13T07:13:54;11.43;;;4.60;;
69008;SDS011;56065;52.472;13.380;2023-02-13T07:16:20;11.60;;;4.10;;
69008;SDS011;56065;52.472;13.380;2023-02-13T07:18:45;9.43;;;3.80;;
69008;SDS011;56065;52.472;13.380;2023-02-13T07:21:11;9.60;;;4.03;;
69008;SDS011;56065;52.472;13.380;2023-02-13T07:23:36;11.30;;;4.43;;
69008;SDS011;56065;52.472;13.380;2023-02-13T07:26:01;12.83;;;4.83;;
69008;SDS011;56065;52.472;13.380;2023-02-13T07:28:27;11.10;;;4.20;;
69008;SDS011;56065;52.472;13.380;2023-02-13T07:30:53;11.80;;;4.80;;
69008;SDS011;56065;52.472;13.380;2023-02-13T07:33:19;11.30;;;3.97;;
69008;SDS011;56065;52.472;13.380;2023-02-13T07:35:48;10.52;;;4.35;;
69008;SDS011;56065;52.472;13.380;2023-02-13T07:38:15;11.03;;;4.30;;
69008;SDS011;56065;52.472;13.380;2023-02-13T07:40:40;22.80;;;6.90;;
69008;SDS011;56065;52.472;13.380;2023-02-13T07:43:06;14.20;;;4.50;;
69008;SDS011;56065;52.472;13.380;2023-02-13T07:45:31;11.15;;;3.95;;
69008;SDS011;56065;52.472;13.380;2023-02-13T07:47:57;10.50;;;4.10;;
69008;SDS011;56065;52.472;13.380;2023-02-13T07:50:24;12.77;;;5.30;;
69008;SDS011;56065;52.472;13.380;2023-02-13T07:52:56;11.02;;;4.00;;
69008;SDS011;56065;52.472;13.380;2023-02-13T07:55:26;12.37;;;4.70;;
69008;SDS011;56065;52.472;13.380;2023-02-13T07:57:52;11.50;;;4.07;;
69008;SDS011;56065;52.472;13.380;2023-02-13T08:00:18;12.98;;;4.60;;
69008;SDS011;56065;52.472;13.380;2023-02-13T08:02:44;12.67;;;4.20;;
69008;SDS011;56065;52.472;13.380;2023-02-13T08:05:10;10.57;;;3.88;;
69008;SDS011;56065;52.472;13.380;2023-02-13T08:07:35;10.73;;;4.20;;
69008;SDS011;56065;52.472;13.380;2023-02-13T08:10:01;13.20;;;4.77;;
69008;SDS011;56065;52.472;13.380;2023-02-13T08:12:46;12.57;;;4.55;;
69008;SDS011;56065;52.472;13.380;2023-02-13T08:15:12;9.98;;;4.13;;
69008;SDS011;56065;52.472;13.380;2023-02-13T08:17:38;15.90;;;6.07;;
69008;SDS011;56065;52.472;13.380;2023-02-13T08:20:04;14.90;;;5.27;;
69008;SDS011;56065;52.472;13.380;2023-02-13T08:22:36;13.55;;;5.97;;
69008;SDS011;56065;52.472;13.380;2023-02-13T08:25:02;16.58;;;6.53;;
69008;SDS011;56065;52.472;13.380;2023-02-13T08:27:28;11.52;;;3.67;;
69008;SDS011;56065;52.472;13.380;2023-02-13T08:29:54;10.50;;;3.87;;
69008;SDS011;56065;52.472;13.380;2023-02-13T08:32:23;10.98;;;4.65;;
69008;SDS011;56065;52.472;13.380;2023-02-13T08:34:49;11.48;;;4.30;;
69008;SDS011;56065;52.472;13.380;2023-02-13T08:37:15;10.47;;;3.93;;
69008;SDS011;56065;52.472;13.380;2023-02-13T08:39:41;10.98;;;4.30;;
69008;SDS011;56065;52.472;13.380;2023-02-13T08:42:07;10.65;;;3.78;;
69008;SDS011;56065;52.472;13.380;2023-02-13T08:44:32;12.30;;;3.83;;
69008;SDS011;56065;52.472;13.380;2023-02-13T08:46:58;10.27;;;4.13;;
69008;SDS011;56065;52.472;13.380;2023-02-13T08:49:27;12.00;;;4.10;;
69008;SDS011;56065;52.472;13.380;2023-02-13T08:51:53;12.07;;;3.93;;
69008;SDS011;56065;52.472;13.380;2023-02-13T08:54:18;12.43;;;3.87;;
69008;SDS011;56065;52.472;13.380;2023-02-13T08:56:43;10.63;;;3.80;;
69008;SDS011;56065;52.472;13.380;2023-02-13T08:59:09;10.63;;;3.97;;
69008;SDS011;56065;52.472;13.380;2023-02-13T09:01:34;10.67;;;4.17;;
69008;SDS011;56065;52.472;13.380;2023-02-13T09:04:00;11.07;;;4.20;;
69008;SDS011;56065;52.472;13.380;2023-02-13T09:06:25;11.20;;;4.27;;
69008;SDS011;56065;52.472;13.380;2023-02-13T09:08:51;12.10;;;4.40;;
69008;SDS011;56065;52.472;13.380;2023-02-13T09:11:17;10.35;;;4.25;;
69008;SDS011;56065;52.472;13.380;2023-02-13T09:13:43;11.98;;;4.15;;
69008;SDS011;56065;52.472;13.380;2023-02-13T09:16:09;11.73;;;4.13;;
69008;SDS011;56065;52.472;13.380;2023-02-13T09:18:35;11.48;;;4.28;;
69008;SDS011;56065;52.472;13.380;2023-02-13T09:21:04;10.50;;;3.80;;
69008;SDS011;56065;52.472;13.380;2023-02-13T09:23:36;12.07;;;4.45;;
69008;SDS011;56065;52.472;13.380;2023-02-13T09:26:04;12.75;;;4.75;;
69008;SDS011;56065;52.472;13.380;2023-02-13T09:28:36;11.55;;;4.40;;
69008;SDS011;56065;52.472;13.380;2023-02-13T09:31:10;12.23;;;4.60;;
69008;SDS011;56065;52.472;13.380;2023-02-13T09:33:38;11.68;;;4.07;;
69008;SDS011;56065;52.472;13.380;2023-02-13T09:36:05;12.10;;;4.20;;
69008;SDS011;56065;52.472;13.380;2023-02-13T09:38:32;13.13;;;4.72;;
69008;SDS011;56065;52.472;13.380;2023-02-13T09:40:59;13.67;;;4.80;;
69008;SDS011;56065;52.472;13.380;2023-02-13T09:46:08;14.57;;;5.32;;
69008;SDS011;56065;52.472;13.380;2023-02-13T09:48:38;16.92;;;5.70;;
69008;SDS011;56065;52.472;13.380;2023-02-13T09:51:06;14.02;;;5.72;;
69008;SDS011;56065;52.472;13.380;2023-02-13T09:53:37;13.57;;;5.17;;
69008;SDS011;56065;52.472;13.380;2023-02-13T09:56:18;14.82;;;5.50;;
69008;SDS011;56065;52.472;13.380;2023-02-13T09:59:30;16.42;;;6.07;;
69008;SDS011;56065;52.472;13.380;2023-02-13T10:02:18;17.92;;;6.78;;
69008;SDS011;56065;52.472;13.380;2023-02-13T10:10:37;14.90;;;5.50;;
69008;SDS011;56065;52.472;13.380;2023-02-13T10:18:27;14.63;;;5.72;;
69008;SDS011;56065;52.472;13.380;2023-02-13T10:21:00;14.20;;;5.87;;
69008;SDS011;56065;52.472;13.380;2023-02-13T10:26:15;14.23;;;5.80;;
69008;SDS011;56065;52.472;13.380;2023-02-13T10:28:51;18.58;;;6.65;;
69008;SDS011;56065;52.472;13.380;2023-02-13T10:31:54;16.02;;;5.88;;
69008;SDS011;56065;52.472;13.380;2023-02-13T10:34:25;16.63;;;6.20;;
69008;SDS011;56065;52.472;13.380;2023-02-13T10:36:52;15.57;;;6.20;;
69008;SDS011;56065;52.472;13.380;2023-02-13T10:39:22;15.75;;;6.03;;
69008;SDS011;56065;52.472;13.380;2023-02-13T10:50:16;12.20;;;4.97;;
69008;SDS011;56065;52.472;13.380;2023-02-13T10:58:48;15.35;;;5.57;;
69008;SDS011;56065;52.472;13.380;2023-02-13T11:03:47;14.63;;;5.20;;
69008;SDS011;56065;52.472;13.380;2023-02-13T11:06:24;16.30;;;6.20;;
69008;SDS011;56065;52.472;13.380;2023-02-13T11:08:49;16.60;;;6.87;;
69008;SDS011;56065;52.472;13.380;2023-02-13T11:11:27;15.37;;;6.03;;
69008;SDS011;56065;52.472;13.380;2023-02-13T11:14:13;15.85;;;5.93;;
69008;SDS011;56065;52.472;13.380;2023-02-13T11:16:39;14.00;;;5.90;;
69008;SDS011;56065;52.472;13.380;2023-02-13T11:19:05;15.90;;;5.67;;
69008;SDS011;56065;52.472;13.380;2023-02-13T11:21:39;15.18;;;6.35;;
69008;SDS011;56065;52.472;13.380;2023-02-13T11:24:07;14.67;;;6.60;;
69008;SDS011;56065;52.472;13.380;2023-02-13T11:26:43;17.88;;;6.50;;
69008;SDS011;56065;52.472;13.380;2023-02-13T11:29:51;16.70;;;7.55;;
69008;SDS011;56065;52.472;13.380;2023-02-13T11:34:38;17.17;;;6.72;;
69008;SDS011;56065;52.472;13.380;2023-02-13T11:37:13;18.50;;;6.77;;
69008;SDS011;56065;52.472;13.380;2023-02-13T11:39:42;15.70;;;6.68;;
69008;SDS011;56065;52.472;13.380;2023-02-13T11:42:13;15.45;;;6.85;;
69008;SDS011;56065;52.472;13.380;2023-02-13T11:44:38;15.90;;;7.28;;
69008;SDS011;56065;52.472;13.380;2023-02-13T11:47:06;17.02;;;7.15;;
69008;SDS011;56065;52.472;13.380;2023-02-13T11:49:35;16.33;;;7.07;;
69008;SDS011;56065;52.472;13.380;2023-02-13T11:52:03;18.35;;;7.78;;
69008;SDS011;56065;52.472;13.380;2023-02-13T11:54:32;16.92;;;7.18;;
69008;SDS011;56065;52.472;13.380;2023-02-13T11:59:29;17.05;;;7.47;;
69008;SDS011;56065;52.472;13.380;2023-02-13T12:04:41;17.40;;;7.82;;
69008;SDS011;56065;52.472;13.380;2023-02-13T12:09:40;17.75;;;7.78;;
69008;SDS011;56065;52.472;13.380;2023-02-13T12:12:09;18.55;;;7.32;;
69008;SDS011;56065;52.472;13.380;2023-02-13T12:14:41;18.27;;;8.30;;
69008;SDS011;56065;52.472;13.380;2023-02-13T12:17:16;17.73;;;8.13;;
69008;SDS011;56065;52.472;13.380;2023-02-13T12:19:45;17.92;;;7.80;;
69008;SDS011;56065;52.472;13.380;2023-02-13T12:22:21;21.55;;;8.40;;
69008;SDS011;56065;52.472;13.380;2023-02-13T12:30:06;16.77;;;7.67;;
69008;SDS011;56065;52.472;13.380;2023-02-13T12:43:32;18.08;;;7.82;;
69008;SDS011;56065;52.472;13.380;2023-02-13T12:46:09;19.30;;;8.73;;
69008;SDS011;56065;52.472;13.380;2023-02-13T12:57:14;20.58;;;9.73;;
69008;SDS011;56065;52.472;13.380;2023-02-13T13:08:21;22.50;;;8.95;;
69008;SDS011;56065;52.472;13.380;2023-02-13T13:19:24;19.13;;;7.50;;
69008;SDS011;56065;52.472;13.380;2023-02-13T13:27:21;19.50;;;8.32;;
69008;SDS011;56065;52.472;13.380;2023-02-13T13:32:23;18.60;;;8.25;;
69008;SDS011;56065;52.472;13.380;2023-02-13T13:34:50;21.40;;;8.20;;
69008;SDS011;56065;52.472;13.380;2023-02-13T13:40:18;18.27;;;8.05;;
69008;SDS011;56065;52.472;13.380;2023-02-13T13:42:52;22.67;;;7.73;;
69008;SDS011;56065;52.472;13.380;2023-02-13T13:45:45;21.23;;;8.10;;
69008;SDS011;56065;52.472;13.380;2023-02-13T13:50:57;24.05;;;7.88;;
69008;SDS011;56065;52.472;13.380;2023-02-13T13:53:23;18.73;;;7.90;;
69008;SDS011;56065;52.472;13.380;2023-02-13T14:03:54;22.48;;;8.50;;
69008;SDS011;56065;52.472;13.380;2023-02-13T14:06:26;19.73;;;9.00;;
69008;SDS011;56065;52.472;13.380;2023-02-13T14:08:55;19.98;;;9.05;;
69008;SDS011;56065;52.472;13.380;2023-02-13T14:13:54;22.10;;;9.00;;
69008;SDS011;56065;52.472;13.380;2023-02-13T14:22:24;23.88;;;9.82;;
69008;SDS011;56065;52.472;13.380;2023-02-13T14:24:48;21.67;;;8.83;;
69008;SDS011;56065;52.472;13.380;2023-02-13T14:27:19;24.38;;;10.63;;
69008;SDS011;56065;52.472;13.380;2023-02-13T14:29:47;24.75;;;9.50;;
69008;SDS011;56065;52.472;13.380;2023-02-13T14:32:31;31.38;;;13.43;;
69008;SDS011;56065;52.472;13.380;2023-02-13T14:35:05;30.95;;;13.55;;
69008;SDS011;56065;52.472;13.380;2023-02-13T14:37:46;21.43;;;8.97;;
69008;SDS011;56065;52.472;13.380;2023-02-13T14:42:39;21.87;;;9.20;;
69008;SDS011;56065;52.472;13.380;2023-02-13T14:45:12;18.38;;;7.85;;
69008;SDS011;56065;52.472;13.380;2023-02-13T14:47:51;24.75;;;9.60;;
69008;SDS011;56065;52.472;13.380;2023-02-13T14:50:31;18.40;;;8.15;;
69008;SDS011;56065;52.472;13.380;2023-02-13T14:53:30;20.40;;;8.60;;
69008;SDS011;56065;52.472;13.380;2023-02-13T14:56:13;20.55;;;8.05;;
69008;SDS011;56065;52.472;13.380;2023-02-13T14:58:47;18.10;;;8.18;;
69008;SDS011;56065;52.472;13.380;2023-02-13T15:01:36;21.20;;;8.10;;
69008;SDS011;56065;52.472;13.380;2023-02-13T15:04:10;20.00;;;7.75;;
69008;SDS011;56065;52.472;13.380;2023-02-13T15:06:39;20.33;;;7.83;;
69008;SDS011;56065;52.472;13.380;2023-02-13T15:09:16;21.90;;;8.75;;
69008;SDS011;56065;52.472;13.380;2023-02-13T15:11:56;19.88;;;8.80;;
69008;SDS011;56065;52.472;13.380;2023-02-13T15:14:23;20.57;;;9.17;;
69008;SDS011;56065;52.472;13.380;2023-02-13T15:17:04;21.10;;;8.90;;
69008;SDS011;56065;52.472;13.380;2023-02-13T15:19:31;22.52;;;8.88;;
69008;SDS011;56065;52.472;13.380;2023-02-13T15:22:00;23.88;;;9.52;;
69008;SDS011;56065;52.472;13.380;2023-02-13T15:24:43;22.30;;;9.27;;
69008;SDS011;56065;52.472;13.380;2023-02-13T15:27:17;19.77;;;8.47;;
69008;SDS011;56065;52.472;13.380;2023-02-13T15:29:56;24.30;;;9.82;;
69008;SDS011;56065;52.472;13.380;2023-02-13T15:32:25;20.75;;;8.68;;
69008;SDS011;56065;52.472;13.380;2023-02-13T15:34:53;21.48;;;9.18;;
69008;SDS011;56065;52.472;13.380;2023-02-13T15:37:20;21.40;;;8.73;;
69008;SDS011;56065;52.472;13.380;2023-02-13T15:39:51;22.55;;;9.55;;
69008;SDS011;56065;52.472;13.380;2023-02-13T15:42:16;23.27;;;9.37;;
69008;SDS011;56065;52.472;13.380;2023-02-13T15:44:43;20.53;;;8.73;;
69008;SDS011;56065;52.472;13.380;2023-02-13T15:47:20;19.05;;;8.23;;
69008;SDS011;56065;52.472;13.380;2023-02-13T15:49:51;19.35;;;8.60;;
69008;SDS011;56065;52.472;13.380;2023-02-13T15:52:29;21.13;;;8.43;;
69008;SDS011;56065;52.472;13.380;2023-02-13T15:55:04;20.80;;;8.48;;
69008;SDS011;56065;52.472;13.380;2023-02-13T15:57:30;22.75;;;9.18;;
69008;SDS011;56065;52.472;13.380;2023-02-13T15:59:57;21.77;;;8.30;;
69008;SDS011;56065;52.472;13.380;2023-02-13T16:02:28;23.30;;;8.88;;
69008;SDS011;56065;52.472;13.380;2023-02-13T16:05:02;21.35;;;8.85;;
69008;SDS011;56065;52.472;13.380;2023-02-13T16:07:28;20.02;;;8.57;;
69008;SDS011;56065;52.472;13.380;2023-02-13T16:10:16;19.43;;;8.50;;
69008;SDS011;56065;52.472;13.380;2023-02-13T16:13:02;20.88;;;8.95;;
69008;SDS011;56065;52.472;13.380;2023-02-13T16:15:30;24.15;;;9.63;;
69008;SDS011;56065;52.472;13.380;2023-02-13T16:17:57;22.45;;;8.80;;
69008;SDS011;56065;52.472;13.380;2023-02-13T16:20:24;21.30;;;8.97;;
69008;SDS011;56065;52.472;13.380;2023-02-13T16:22:52;21.08;;;9.38;;
69008;SDS011;56065;52.472;13.380;2023-02-13T16:25:24;21.13;;;9.10;;
69008;SDS011;56065;52.472;13.380;2023-02-13T16:28:02;23.40;;;9.80;;
69008;SDS011;56065;52.472;13.380;2023-02-13T16:30:38;21.15;;;9.05;;
69008;SDS011;56065;52.472;13.380;2023-02-13T16:35:43;19.77;;;8.27;;
69008;SDS011;56065;52.472;13.380;2023-02-13T16:41:01;19.98;;;9.20;;
69008;SDS011;56065;52.472;13.380;2023-02-13T16:46:31;21.30;;;8.77;;
69008;SDS011;56065;52.472;13.380;2023-02-13T16:49:12;25.50;;;8.65;;
69008;SDS011;56065;52.472;13.380;2023-02-13T16:51:50;22.60;;;9.00;;
69008;SDS011;56065;52.472;13.380;2023-02-13T16:54:24;23.95;;;9.98;;
69008;SDS011;56065;52.472;13.380;2023-02-13T17:02:26;20.65;;;9.25;;
69008;SDS011;56065;52.472;13.380;2023-02-13T17:07:34;24.30;;;8.80;;
69008;SDS011;56065;52.472;13.380;2023-02-13T17:10:04;21.08;;;8.45;;
69008;SDS011;56065;52.472;13.380;2023-02-13T17:12:34;21.73;;;8.53;;
69008;SDS011;56065;52.472;13.380;2023-02-13T17:15:01;22.50;;;9.50;;
69008;SDS011;56065;52.472;13.380;2023-02-13T17:17:29;22.83;;;9.50;;
69008;SDS011;56065;52.472;13.380;2023-02-13T17:19:55;23.20;;;9.82;;
69008;SDS011;56065;52.472;13.380;2023-02-13T17:22:24;22.90;;;8.98;;
69008;SDS011;56065;52.472;13.380;2023-02-13T17:24:54;26.27;;;9.10;;
69008;SDS011;56065;52.472;13.380;2023-02-13T17:27:20;21.45;;;9.40;;
69008;SDS011;56065;52.472;13.380;2023-02-13T17:29:46;19.93;;;8.53;;
69008;SDS011;56065;52.472;13.380;2023-02-13T17:32:18;19.63;;;8.07;;
69008;SDS011;56065;52.472;13.380;2023-02-13T17:34:46;24.65;;;9.57;;
69008;SDS011;56065;52.472;13.380;2023-02-13T17:37:15;20.43;;;9.23;;
69008;SDS011;56065;52.472;13.380;2023-02-13T17:39:46;22.27;;;8.57;;
69008;SDS011;56065;52.472;13.380;2023-02-13T17:42:17;20.88;;;9.13;;
69008;SDS011;56065;52.472;13.380;2023-02-13T17:44:50;22.17;;;9.02;;
69008;SDS011;56065;52.472;13.380;2023-02-13T17:47:16;19.85;;;8.93;;